Mobile, Alabama
Current Conditions -  °F | °C
As of 12:53 AM on Saturday 25 Oct 2014 (Local Time) from KBFM Reporting Station
Clear Clear  
Wind Chill: 56°   Ceiling: Unl
Heat Index: 56°   Visibility: 10mi
Dew Point: 47°   Wind: 6mph
Humidity: 72%   Direction: 300°WNW
Pressure: 30.08"   Gusts: NA
Location:  30.69°N, 88.05°W
Report Text: KBFM 250553Z AUTO 30005KT 10SM CLR 13/08 A3008 RMK AO2 SLP186 T01330083 10167 20122 402560100 58002
Loading
Personal Weather Stations






























Interactive Weather Map New forecast layout! Learn more

10-Day Weather Forecast

Advertisements
Track Severe Weather on mobile